Time;durP1;ratioP1;P1;durP2;ratioP2;P2;SDS_P1;SDS_P2;PMS_P1;PMS_P2;Temp;Humidity;BMP_temperature;BMP_pressure;BME280_temperature;BME280_humidity;BME280_pressure;Samples;Min_cycle;Max_cycle;Signal;HPM_P1;HPM_P2
2022/11/29 00:01:52;;;;;;;201.25;103.40;;;;;;;;;;5033685;28;20057;-67
2022/11/29 00:04:17;;;;;;;177.52;90.53;;;;;;;;;;5016187;28;20115;-68
2022/11/29 00:06:43;;;;;;;219.40;119.78;;;;;;;;;;5033770;28;20025;-66
2022/11/29 00:09:10;;;;;;;123.07;73.00;;;;;;;;;;5033825;28;20032;-68
2022/11/29 00:14:22;;;;;;;281.25;161.90;;;;;;;;;;5033674;28;20518;-66
2022/11/29 00:16:55;;;;;;;157.65;99.22;;;;;;;;;;5033870;28;20109;-68
2022/11/29 00:19:20;;;;;;;75.43;46.90;;;;;;;;;;5033382;28;20449;-68
2022/11/29 00:21:45;;;;;;;110.25;73.97;;;;;;;;;;5033772;28;20096;-69
2022/11/29 00:24:11;;;;;;;101.70;78.32;;;;;;;;;;5016102;28;20472;-68
2022/11/29 00:26:36;;;;;;;78.75;59.50;;;;;;;;;;5033530;28;20017;-68
2022/11/29 00:29:02;;;;;;;53.63;36.97;;;;;;;;;;5015985;28;20127;-67
2022/11/29 00:31:29;;;;;;;48.03;34.33;;;;;;;;;;5034431;28;20025;-68
2022/11/29 00:33:55;;;;;;;36.90;25.48;;;;;;;;;;5037732;28;20021;-68
2022/11/29 00:36:20;;;;;;;35.22;20.58;;;;;;;;;;5037782;28;20014;-68
2022/11/29 00:38:46;;;;;;;29.83;20.50;;;;;;;;;;5037888;28;20519;-68
2022/11/29 00:41:11;;;;;;;30.90;22.65;;;;;;;;;;5037283;28;20445;-69
2022/11/29 00:43:37;;;;;;;29.30;19.83;;;;;;;;;;5037426;28;20033;-68
2022/11/29 00:46:02;;;;;;;29.13;19.77;;;;;;;;;;5037632;28;20444;-68
2022/11/29 00:48:28;;;;;;;29.88;20.10;;;;;;;;;;5037280;28;20073;-68
2022/11/29 00:50:53;;;;;;;30.98;20.52;;;;;;;;;;5037463;28;20045;-68
2022/11/29 00:53:19;;;;;;;31.58;20.48;;;;;;;;;;5037470;28;20037;-67
2022/11/29 00:55:46;;;;;;;41.83;25.30;;;;;;;;;;5037334;28;20021;-67
2022/11/29 00:58:12;;;;;;;47.80;29.38;;;;;;;;;;5019834;28;20061;-67
2022/11/29 01:00:37;;;;;;;43.88;28.30;;;;;;;;;;5019718;28;20053;-68
2022/11/29 01:03:03;;;;;;;44.95;27.95;;;;;;;;;;5037275;28;20083;-68
2022/11/29 01:05:29;;;;;;;44.05;26.25;;;;;;;;;;5037130;28;20044;-67
2022/11/29 01:07:55;;;;;;;34.45;21.95;;;;;;;;;;5019467;28;20026;-67
2022/11/29 01:10:20;;;;;;;33.85;21.00;;;;;;;;;;5037142;28;20109;-68
2022/11/29 01:12:45;;;;;;;32.65;20.67;;;;;;;;;;5019318;28;20036;-69
2022/11/29 01:15:11;;;;;;;32.20;21.23;;;;;;;;;;5019248;28;20021;-69
2022/11/29 01:17:37;;;;;;;32.05;20.58;;;;;;;;;;5036640;28;20529;-69
2022/11/29 01:20:03;;;;;;;32.67;20.17;;;;;;;;;;5036774;28;20018;-68
2022/11/29 01:22:29;;;;;;;30.83;19.65;;;;;;;;;;5036787;28;20495;-69
2022/11/29 01:24:54;;;;;;;42.97;24.23;;;;;;;;;;5036515;28;20025;-68
2022/11/29 01:27:19;;;;;;;35.55;21.85;;;;;;;;;;5036841;28;20030;-68
2022/11/29 01:29:45;;;;;;;34.10;20.48;;;;;;;;;;5036759;28;20025;-69
2022/11/29 01:32:11;;;;;;;34.63;20.70;;;;;;;;;;5036598;28;20021;-68
2022/11/29 01:34:36;;;;;;;32.05;21.17;;;;;;;;;;5036497;28;20021;-68
2022/11/29 01:37:02;;;;;;;30.23;20.42;;;;;;;;;;5018936;28;20032;-68
2022/11/29 01:39:27;;;;;;;30.85;20.05;;;;;;;;;;5036840;28;20029;-72
2022/11/29 01:41:53;;;;;;;30.95;20.33;;;;;;;;;;5018961;28;20036;-73
2022/11/29 01:44:19;;;;;;;33.78;20.67;;;;;;;;;;5018657;28;20117;-72
2022/11/29 01:46:45;;;;;;;32.17;20.33;;;;;;;;;;5036375;28;20045;-73
2022/11/29 01:49:16;;;;;;;30.40;19.20;;;;;;;;;;5036028;28;20096;-73
2022/11/29 01:51:51;;;;;;;32.03;20.10;;;;;;;;;;5036549;28;20033;-74
2022/11/29 01:54:18;;;;;;;30.88;20.63;;;;;;;;;;5018530;28;20021;-74
2022/11/29 01:56:45;;;;;;;30.42;20.23;;;;;;;;;;5036280;28;20025;-72
2022/11/29 01:59:13;;;;;;;29.15;19.73;;;;;;;;;;5036213;28;20034;-73
2022/11/29 02:01:38;;;;;;;34.42;21.42;;;;;;;;;;5036128;28;20037;-74
2022/11/29 02:04:04;;;;;;;30.75;19.67;;;;;;;;;;5035706;28;20032;-73
2022/11/29 02:06:29;;;;;;;31.13;21.27;;;;;;;;;;5035951;28;20017;-72
2022/11/29 02:08:55;;;;;;;28.38;20.20;;;;;;;;;;5035709;28;20091;-73
2022/11/29 02:11:28;;;;;;;31.60;19.40;;;;;;;;;;5035645;28;20030;-72
2022/11/29 02:14:19;;;;;;;29.48;19.45;;;;;;;;;;5035419;28;20032;-73
2022/11/29 02:16:44;;;;;;;;;;;;;;;;;;5036104;28;20044;-73
2022/11/29 02:19:28;;;;;;;31.97;19.70;;;;;;;;;;5035946;28;19905;-73
2022/11/29 02:21:56;;;;;;;29.35;18.92;;;;;;;;;;5035881;28;20017;-69
2022/11/29 02:24:41;;;;;;;29.17;18.83;;;;;;;;;;5017911;28;20449;-68
2022/11/29 02:27:24;;;;;;;27.85;19.02;;;;;;;;;;5017857;28;20025;-69
2022/11/29 02:30:05;;;;;;;26.80;17.45;;;;;;;;;;5035445;28;20041;-69
2022/11/29 02:32:49;;;;;;;32.97;19.45;;;;;;;;;;5017395;28;20064;-69
2022/11/29 02:35:29;;;;;;;35.13;20.13;;;;;;;;;;5035177;28;20035;-69
2022/11/29 02:38:01;;;;;;;37.72;21.23;;;;;;;;;;5018040;28;20033;-69
2022/11/29 02:40:45;;;;;;;46.65;23.88;;;;;;;;;;5035397;28;20460;-69
2022/11/29 02:43:34;;;;;;;34.65;21.35;;;;;;;;;;5035604;28;20491;-67
2022/11/29 02:46:18;;;;;;;37.10;20.77;;;;;;;;;;5017559;28;20044;-69
2022/11/29 02:49:02;;;;;;;41.10;21.98;;;;;;;;;;5034729;28;20129;-66
2022/11/29 02:51:51;;;;;;;36.22;21.80;;;;;;;;;;5035017;28;20033;-66
2022/11/29 02:54:22;;;;;;;33.42;20.27;;;;;;;;;;5021049;28;20045;-66
2022/11/29 02:56:59;;;;;;;37.17;20.98;;;;;;;;;;5034934;28;20029;-66
2022/11/29 02:59:41;;;;;;;31.35;19.42;;;;;;;;;;5035099;28;20057;-67
2022/11/29 03:02:09;;;;;;;29.08;19.27;;;;;;;;;;5035018;28;20060;-67
2022/11/29 03:04:53;;;;;;;32.28;19.67;;;;;;;;;;5034694;28;20339;-66
2022/11/29 03:07:37;;;;;;;29.50;19.05;;;;;;;;;;5034842;28;20026;-68
2022/11/29 03:10:22;;;;;;;31.35;20.27;;;;;;;;;;5034654;28;20342;-73
2022/11/29 03:12:49;;;;;;;29.35;19.83;;;;;;;;;;5034692;28;20037;-73
2022/11/29 03:15:17;;;;;;;29.77;20.23;;;;;;;;;;5016993;28;20080;-73
2022/11/29 03:18:05;;;;;;;32.63;21.08;;;;;;;;;;5034716;28;20025;-73
2022/11/29 03:20:38;;;;;;;29.25;20.20;;;;;;;;;;5018626;28;20037;-73
2022/11/29 03:23:10;;;;;;;34.38;19.77;;;;;;;;;;5034666;28;20030;-73
2022/11/29 03:25:42;;;;;;;33.22;21.10;;;;;;;;;;5034648;28;20040;-73
2022/11/29 03:28:27;;;;;;;35.40;22.45;;;;;;;;;;5016506;28;20117;-74
2022/11/29 03:31:00;;;;;;;28.20;18.00;;;;;;;;;;5016380;28;20380;-73
2022/11/29 03:33:37;;;;;;;26.00;18.23;;;;;;;;;;5034349;28;20483;-73
2022/11/29 03:36:10;;;;;;;27.63;17.70;;;;;;;;;;5034447;28;20025;-73
2022/11/29 03:38:35;;;;;;;33.72;21.10;;;;;;;;;;5034359;28;20029;-73
2022/11/29 03:41:24;;;;;;;27.30;18.05;;;;;;;;;;5016663;28;20049;-72
2022/11/29 03:43:49;;;;;;;24.88;17.27;;;;;;;;;;5016629;28;20072;-74
2022/11/29 03:46:20;;;;;;;28.10;18.30;;;;;;;;;;5034266;28;20184;-73
2022/11/29 03:48:52;;;;;;;25.65;16.83;;;;;;;;;;5033909;28;20080;-73
2022/11/29 03:51:26;;;;;;;32.55;20.83;;;;;;;;;;5016426;28;20064;-73
2022/11/29 03:54:03;;;;;;;118.18;66.93;;;;;;;;;;5034024;28;20033;-73
2022/11/29 03:56:33;;;;;;;108.45;54.55;;;;;;;;;;5016494;28;20116;-67
2022/11/29 03:58:58;;;;;;;60.63;42.05;;;;;;;;;;5034126;28;20033;-69
2022/11/29 04:01:30;;;;;;;31.42;20.73;;;;;;;;;;5016408;28;20117;-68
2022/11/29 04:03:55;;;;;;;34.88;24.15;;;;;;;;;;5033996;28;20026;-69
2022/11/29 04:06:45;;;;;;;32.17;22.10;;;;;;;;;;5016155;28;20591;-69
2022/11/29 04:09:25;;;;;;;34.22;23.00;;;;;;;;;;5033711;28;20064;-69
2022/11/29 04:11:54;;;;;;;;;;;;;;;;;;5034222;28;20053;-69
2022/11/29 04:14:29;;;;;;;38.95;30.63;;;;;;;;;;5016116;28;20327;-68
2022/11/29 04:17:13;;;;;;;28.92;19.05;;;;;;;;;;5033778;28;20025;-69
2022/11/29 04:19:45;;;;;;;27.30;18.30;;;;;;;;;;5033890;28;20040;-69
2022/11/29 04:22:10;;;;;;;36.92;24.98;;;;;;;;;;5016285;28;20025;-69
2022/11/29 04:24:54;;;;;;;34.28;23.58;;;;;;;;;;5033856;28;20028;-67
2022/11/29 04:27:29;;;;;;;29.75;21.58;;;;;;;;;;5015648;28;20052;-68
2022/11/29 04:29:55;;;;;;;34.42;23.23;;;;;;;;;;5033488;28;20034;-68
2022/11/29 04:32:23;;;;;;;31.95;22.40;;;;;;;;;;5033738;28;20419;-67
2022/11/29 04:34:52;;;;;;;33.97;19.75;;;;;;;;;;5015765;28;20455;-69
2022/11/29 04:37:17;;;;;;;31.90;20.05;;;;;;;;;;5015990;28;20060;-69
2022/11/29 04:40:01;;;;;;;29.17;20.52;;;;;;;;;;5015929;28;20053;-68
2022/11/29 04:45:08;;;;;;;28.50;18.60;;;;;;;;;;5085807;22;20410;-72
2022/11/29 04:47:49;;;;;;;29.27;19.55;;;;;;;;;;5075764;28;20032;-73
2022/11/29 04:50:22;;;;;;;30.73;19.98;;;;;;;;;;5093897;28;20054;-72
2022/11/29 04:53:06;;;;;;;28.40;19.05;;;;;;;;;;5076105;28;20020;-72
2022/11/29 04:55:50;;;;;;;28.05;18.55;;;;;;;;;;5093128;28;20048;-72
2022/11/29 04:58:25;;;;;;;30.25;19.70;;;;;;;;;;5092182;28;20028;-72
2022/11/29 05:01:00;;;;;;;26.63;18.45;;;;;;;;;;5074488;28;20252;-72
2022/11/29 05:03:32;;;;;;;29.73;19.27;;;;;;;;;;5092071;28;20024;-72
2022/11/29 05:06:23;;;;;;;24.85;17.58;;;;;;;;;;5074454;28;20032;-72
2022/11/29 05:09:09;;;;;;;27.65;17.80;;;;;;;;;;5089338;28;20466;-73
2022/11/29 05:11:48;;;;;;;26.80;17.90;;;;;;;;;;5092348;28;20565;-72
2022/11/29 05:14:29;;;;;;;28.48;18.52;;;;;;;;;;5092950;28;20509;-72
2022/11/29 05:17:02;;;;;;;25.13;17.40;;;;;;;;;;5093235;28;20044;-72
2022/11/29 05:19:38;;;;;;;25.23;16.60;;;;;;;;;;5078059;28;20055;-74
2022/11/29 05:22:22;;;;;;;28.67;17.90;;;;;;;;;;5096814;28;20024;-72
2022/11/29 05:24:57;;;;;;;25.88;17.85;;;;;;;;;;5096813;28;20117;-72
2022/11/29 05:27:31;;;;;;;27.73;18.20;;;;;;;;;;5096568;28;20024;-72
2022/11/29 05:30:01;;;;;;;25.02;18.52;;;;;;;;;;5078454;28;20127;-73
2022/11/29 05:32:32;;;;;;;24.33;17.15;;;;;;;;;;5096351;28;20098;-73
2022/11/29 05:35:10;;;;;;;28.45;17.00;;;;;;;;;;5096242;28;20067;-72
2022/11/29 05:37:48;;;;;;;25.98;16.90;;;;;;;;;;5096668;28;20099;-73
2022/11/29 05:40:17;;;;;;;28.02;17.55;;;;;;;;;;5096293;28;20032;-73
2022/11/29 05:42:52;;;;;;;26.17;17.10;;;;;;;;;;5078214;28;20024;-72
2022/11/29 05:45:21;;;;;;;25.27;17.40;;;;;;;;;;5095398;28;20048;-72
2022/11/29 05:47:52;;;;;;;23.42;16.00;;;;;;;;;;5096115;28;20111;-63
2022/11/29 05:50:38;;;;;;;23.70;16.45;;;;;;;;;;5096030;28;20036;-69
2022/11/29 05:53:13;;;;;;;22.25;15.30;;;;;;;;;;5095658;28;20028;-69
2022/11/29 05:55:51;;;;;;;23.05;16.08;;;;;;;;;;5095605;28;20043;-70
2022/11/29 05:58:35;;;;;;;21.35;15.10;;;;;;;;;;5077150;28;20424;-70
2022/11/29 06:01:21;;;;;;;23.35;16.23;;;;;;;;;;5095435;28;20224;-70
2022/11/29 06:03:57;;;;;;;23.50;16.40;;;;;;;;;;5063671;28;20032;-70
2022/11/29 06:06:33;;;;;;;24.45;16.02;;;;;;;;;;5095769;28;20028;-70
2022/11/29 06:08:58;;;;;;;22.45;17.00;;;;;;;;;;5077705;28;20374;-70
2022/11/29 06:11:29;;;;;;;22.63;16.65;;;;;;;;;;5094795;28;20020;-70
2022/11/29 06:14:00;;;;;;;23.23;16.20;;;;;;;;;;5094557;28;20040;-70
2022/11/29 06:16:39;;;;;;;25.55;15.93;;;;;;;;;;5076075;28;20020;-70
2022/11/29 06:19:07;;;;;;;21.20;14.68;;;;;;;;;;5093534;28;20088;-70
2022/11/29 06:21:39;;;;;;;28.90;17.67;;;;;;;;;;5075345;28;20030;-70
2022/11/29 06:24:15;;;;;;;25.27;16.80;;;;;;;;;;5094473;28;20028;-70
2022/11/29 06:26:50;;;;;;;27.67;17.73;;;;;;;;;;5094614;28;20072;-69
2022/11/29 06:29:17;;;;;;;29.65;17.50;;;;;;;;;;5092749;28;20032;-70
2022/11/29 06:31:45;;;;;;;515.83;212.40;;;;;;;;;;5075482;28;20102;-72
2022/11/29 06:34:10;;;;;;;305.55;221.25;;;;;;;;;;5076165;28;20474;-71
2022/11/29 06:36:43;;;;;;;196.10;83.57;;;;;;;;;;5076599;28;20106;-71
2022/11/29 06:39:09;;;;;;;111.05;88.15;;;;;;;;;;5095335;28;20089;-71
2022/11/29 06:41:34;;;;;;;49.83;39.65;;;;;;;;;;5077325;28;20412;-71
2022/11/29 06:44:00;;;;;;;90.30;45.53;;;;;;;;;;5077295;28;20394;-71
2022/11/29 06:46:31;;;;;;;90.55;46.33;;;;;;;;;;5094806;28;20038;-71
2022/11/29 06:49:17;;;;;;;409.52;163.95;;;;;;;;;;5094439;28;20036;-71
2022/11/29 06:51:48;;;;;;;580.95;269.55;;;;;;;;;;5094113;28;20139;-70
2022/11/29 06:54:13;;;;;;;374.33;217.60;;;;;;;;;;5094688;28;20115;-70
2022/11/29 06:56:58;;;;;;;149.65;101.75;;;;;;;;;;5094757;28;20051;-71
2022/11/29 06:59:55;;;;;;;57.20;45.17;;;;;;;;;;5095051;28;20036;-71
2022/11/29 07:02:29;;;;;;;88.20;62.50;;;;;;;;;;5050596;28;20126;-71
2022/11/29 07:04:55;;;;;;;66.93;42.63;;;;;;;;;;5095158;28;20073;-71
2022/11/29 07:07:21;;;;;;;66.25;49.55;;;;;;;;;;5076794;28;20020;-71
2022/11/29 07:09:48;;;;;;;41.00;32.53;;;;;;;;;;5094942;28;20034;-71
2022/11/29 07:12:14;;;;;;;47.13;37.40;;;;;;;;;;5095016;28;20028;-71
2022/11/29 07:14:40;;;;;;;37.97;31.80;;;;;;;;;;5095004;28;20032;-71
2022/11/29 07:17:21;;;;;;;28.13;20.52;;;;;;;;;;5076711;28;20045;-71
2022/11/29 07:19:52;;;;;;;24.70;17.50;;;;;;;;;;5076551;28;20377;-71
2022/11/29 07:22:21;;;;;;;34.85;27.73;;;;;;;;;;5094806;28;20028;-70
2022/11/29 07:24:55;;;;;;;29.85;22.02;;;;;;;;;;5094822;28;20374;-70
2022/11/29 07:27:32;;;;;;;27.38;19.30;;;;;;;;;;5086313;28;20115;-71
2022/11/29 07:30:18;;;;;;;25.15;18.27;;;;;;;;;;5094473;28;20028;-71
2022/11/29 07:32:59;;;;;;;30.92;21.35;;;;;;;;;;5094772;28;20070;-71
2022/11/29 07:35:25;;;;;;;;;;;;;;;;;;5095099;28;20032;-71
2022/11/29 07:37:53;;;;;;;54.22;32.63;;;;;;;;;;5094499;28;19947;-71
2022/11/29 07:40:22;;;;;;;29.63;21.95;;;;;;;;;;5094094;28;20028;-71
2022/11/29 07:42:54;;;;;;;31.45;21.52;;;;;;;;;;5076266;28;20023;-71
2022/11/29 07:45:24;;;;;;;64.35;43.13;;;;;;;;;;5094419;28;20048;-71
2022/11/29 07:47:50;;;;;;;31.90;23.45;;;;;;;;;;5076345;28;20039;-71
2022/11/29 07:50:15;;;;;;;34.08;24.75;;;;;;;;;;5094142;28;20020;-71
2022/11/29 07:52:41;;;;;;;41.83;30.67;;;;;;;;;;5094202;28;20035;-70
2022/11/29 07:55:10;;;;;;;54.30;40.05;;;;;;;;;;5094198;28;20039;-70
2022/11/29 07:57:36;;;;;;;38.05;23.70;;;;;;;;;;5092502;22;20060;-68
2022/11/29 08:00:02;;;;;;;25.25;17.58;;;;;;;;;;5073961;28;20505;-68
2022/11/29 08:02:36;;;;;;;27.45;17.65;;;;;;;;;;5073866;28;20048;-68
2022/11/29 08:05:02;;;;;;;30.10;19.25;;;;;;;;;;5073888;28;20032;-68
2022/11/29 08:07:28;;;;;;;33.63;21.90;;;;;;;;;;5073883;28;20378;-68
2022/11/29 08:09:54;;;;;;;26.73;17.98;;;;;;;;;;5073654;28;20161;-68
2022/11/29 08:12:19;;;;;;;31.25;20.25;;;;;;;;;;5073662;28;20470;-68
2022/11/29 08:14:44;;;;;;;40.00;26.67;;;;;;;;;;5073582;28;20028;-68
2022/11/29 08:17:09;;;;;;;30.40;21.33;;;;;;;;;;5073721;28;20016;-68
2022/11/29 08:19:35;;;;;;;31.67;20.27;;;;;;;;;;5093854;28;20040;-68
2022/11/29 08:22:00;;;;;;;28.40;18.13;;;;;;;;;;5093775;28;20028;-68
2022/11/29 08:24:26;;;;;;;32.67;23.30;;;;;;;;;;5093720;28;20059;-68
2022/11/29 08:26:51;;;;;;;33.55;23.35;;;;;;;;;;5093763;28;20103;-68
2022/11/29 08:29:17;;;;;;;27.02;18.15;;;;;;;;;;5093668;28;20062;-68
2022/11/29 08:31:42;;;;;;;24.48;17.27;;;;;;;;;;5093723;28;20039;-68
2022/11/29 08:34:09;;;;;;;20.80;14.93;;;;;;;;;;5093793;28;20020;-68
2022/11/29 08:36:34;;;;;;;22.80;15.60;;;;;;;;;;5093757;28;20016;-68
2022/11/29 08:39:05;;;;;;;21.52;15.60;;;;;;;;;;5075561;28;20024;-68
2022/11/29 08:41:30;;;;;;;29.70;21.05;;;;;;;;;;5093628;28;20474;-68
2022/11/29 08:43:56;;;;;;;55.55;46.05;;;;;;;;;;5058799;28;20031;-68
2022/11/29 08:46:21;;;;;;;36.20;28.90;;;;;;;;;;5093532;28;20032;-68
2022/11/29 08:48:47;;;;;;;27.92;20.95;;;;;;;;;;5093520;28;20024;-68
2022/11/29 08:51:12;;;;;;;22.75;15.98;;;;;;;;;;5093394;28;20028;-68
2022/11/29 08:53:40;;;;;;;22.05;15.10;;;;;;;;;;5096567;28;20047;-68
2022/11/29 08:56:06;;;;;;;26.55;17.70;;;;;;;;;;5097653;28;20024;-66
2022/11/29 08:58:31;;;;;;;32.75;24.10;;;;;;;;;;5079252;28;20047;-68
2022/11/29 09:00:57;;;;;;;24.50;16.33;;;;;;;;;;5097526;28;20020;-68
2022/11/29 09:06:07;;;;;;;27.52;18.65;;;;;;;;;;5097424;28;20066;-68
2022/11/29 09:08:33;;;;;;;32.22;23.83;;;;;;;;;;5097513;28;20020;-68
2022/11/29 09:10:59;;;;;;;40.08;28.50;;;;;;;;;;5097136;28;20032;-68
2022/11/29 09:13:27;;;;;;;26.00;19.48;;;;;;;;;;5097195;28;20024;-68
2022/11/29 09:15:53;;;;;;;30.17;18.88;;;;;;;;;;5097185;28;20091;-67
2022/11/29 09:18:21;;;;;;;25.10;16.80;;;;;;;;;;5097107;28;20023;-67
2022/11/29 09:20:46;;;;;;;20.25;15.18;;;;;;;;;;5097141;28;20471;-69
2022/11/29 09:23:12;;;;;;;23.58;15.73;;;;;;;;;;5097120;28;20161;-68
2022/11/29 09:25:37;;;;;;;24.50;16.85;;;;;;;;;;5096961;28;20024;-66
2022/11/29 09:28:04;;;;;;;23.63;16.38;;;;;;;;;;5078747;28;20458;-68
2022/11/29 09:33:01;;;;;;;31.85;20.77;;;;;;;;;;5105439;22;20040;-71
2022/11/29 09:35:27;;;;;;;138.57;89.22;;;;;;;;;;5078596;28;20031;-70
2022/11/29 09:37:52;;;;;;;38.35;22.38;;;;;;;;;;5096714;28;20437;-70
2022/11/29 09:40:19;;;;;;;39.95;23.40;;;;;;;;;;5096777;28;20421;-71
2022/11/29 09:42:51;;;;;;;168.88;66.68;;;;;;;;;;5096679;28;20051;-70
2022/11/29 09:45:19;;;;;;;145.32;63.22;;;;;;;;;;5096628;28;20024;-71
2022/11/29 09:47:44;;;;;;;32.65;20.90;;;;;;;;;;5078507;28;20089;-71
2022/11/29 09:50:19;;;;;;;26.48;17.23;;;;;;;;;;5096447;28;20051;-69
2022/11/29 09:53:03;;;;;;;24.58;16.77;;;;;;;;;;5096475;28;20435;-71
2022/11/29 09:55:37;;;;;;;38.00;21.27;;;;;;;;;;5096596;28;20086;-71
2022/11/29 09:58:04;;;;;;;245.02;196.20;;;;;;;;;;5096404;28;20354;-71
2022/11/29 10:00:31;;;;;;;289.30;146.32;;;;;;;;;;5096683;28;20012;-71
2022/11/29 10:03:18;;;;;;;238.98;129.98;;;;;;;;;;5096278;28;20035;-70
2022/11/29 10:05:46;;;;;;;123.35;66.28;;;;;;;;;;5096301;28;20032;-70
2022/11/29 10:08:14;;;;;;;403.77;202.00;;;;;;;;;;5096168;28;20020;-70
2022/11/29 10:10:45;;;;;;;248.63;127.05;;;;;;;;;;5096241;28;20032;-70
2022/11/29 10:13:10;;;;;;;;;;;;;;;;;;5096552;28;20069;-70
2022/11/29 10:15:39;;;;;;;56.40;43.10;;;;;;;;;;5096241;28;19904;-70
2022/11/29 10:18:15;;;;;;;62.50;46.33;;;;;;;;;;5078205;28;20085;-70
2022/11/29 10:20:42;;;;;;;39.83;27.17;;;;;;;;;;5077975;28;20313;-70
2022/11/29 10:23:19;;;;;;;28.27;21.80;;;;;;;;;;5095930;28;20446;-70
2022/11/29 10:25:53;;;;;;;177.20;115.55;;;;;;;;;;5095963;28;20024;-70
2022/11/29 10:28:24;;;;;;;53.85;38.63;;;;;;;;;;5096099;28;20032;-69
2022/11/29 10:30:51;;;;;;;104.93;63.08;;;;;;;;;;5095813;28;20513;-68
2022/11/29 10:33:19;;;;;;;122.43;88.32;;;;;;;;;;5077445;28;20036;-68
2022/11/29 10:35:46;;;;;;;45.70;32.33;;;;;;;;;;5077679;28;20050;-68
2022/11/29 10:38:12;;;;;;;78.53;55.08;;;;;;;;;;5095562;28;20019;-68
2022/11/29 10:40:38;;;;;;;53.47;34.72;;;;;;;;;;5095614;28;20028;-68
2022/11/29 10:43:04;;;;;;;60.95;33.55;;;;;;;;;;5095444;28;20027;-68
2022/11/29 10:45:42;;;;;;;233.55;100.68;;;;;;;;;;5095544;28;20039;-68
2022/11/29 10:48:15;;;;;;;58.33;30.75;;;;;;;;;;5095433;28;20024;-68
2022/11/29 10:50:42;;;;;;;73.75;39.95;;;;;;;;;;5095347;28;20430;-69
2022/11/29 10:53:16;;;;;;;30.02;20.70;;;;;;;;;;5095341;28;20020;-68
2022/11/29 10:55:41;;;;;;;30.98;21.05;;;;;;;;;;5077370;28;20028;-67
2022/11/29 10:58:08;;;;;;;99.03;64.27;;;;;;;;;;5095197;28;20095;-68
2022/11/29 11:00:49;;;;;;;25.15;16.85;;;;;;;;;;5077526;28;20307;-67
2022/11/29 11:03:14;;;;;;;;;;;;;;;;;;5095711;28;20036;-67
2022/11/29 11:05:39;;;;;;;48.23;32.60;;;;;;;;;;5095016;28;19958;-67
2022/11/29 11:08:15;;;;;;;31.90;22.65;;;;;;;;;;5076481;28;20032;-68
2022/11/29 11:10:41;;;;;;;24.45;18.20;;;;;;;;;;5093954;28;20039;-68
2022/11/29 11:13:18;;;;;;;27.50;20.63;;;;;;;;;;5075382;28;20016;-68
2022/11/29 11:15:44;;;;;;;23.92;17.73;;;;;;;;;;5075144;28;20095;-67
2022/11/29 11:18:16;;;;;;;25.38;19.85;;;;;;;;;;5093754;28;20447;-68
2022/11/29 11:20:43;;;;;;;29.23;21.63;;;;;;;;;;5075489;28;20048;-68
2022/11/29 11:23:24;;;;;;;21.92;15.93;;;;;;;;;;5093636;28;20106;-67
2022/11/29 11:26:03;;;;;;;60.88;34.92;;;;;;;;;;5093348;28;20501;-68
2022/11/29 11:28:30;;;;;;;22.15;16.20;;;;;;;;;;5093543;28;20475;-68
2022/11/29 11:30:55;;;;;;;71.60;39.00;;;;;;;;;;5075135;28;20020;-68
2022/11/29 11:33:33;;;;;;;25.70;17.63;;;;;;;;;;5085034;28;20034;-67
2022/11/29 11:35:59;;;;;;;19.75;14.98;;;;;;;;;;5075370;28;20020;-67
2022/11/29 11:38:24;;;;;;;20.45;14.38;;;;;;;;;;5093376;28;20539;-67
2022/11/29 11:40:59;;;;;;;24.02;14.80;;;;;;;;;;5093063;28;20451;-67
2022/11/29 11:43:24;;;;;;;24.92;17.02;;;;;;;;;;5093182;28;20064;-67
2022/11/29 11:45:51;;;;;;;20.83;13.18;;;;;;;;;;5092766;28;20020;-67
2022/11/29 11:48:18;;;;;;;15.73;10.05;;;;;;;;;;5093204;28;20032;-67
2022/11/29 11:50:48;;;;;;;15.73;11.70;;;;;;;;;;5093046;28;20031;-65
2022/11/29 11:53:25;;;;;;;18.33;13.00;;;;;;;;;;5093106;28;20027;-65
2022/11/29 11:55:59;;;;;;;16.42;11.60;;;;;;;;;;5093067;28;20028;-65
2022/11/29 11:58:26;;;;;;;18.25;14.52;;;;;;;;;;5093112;28;20478;-65
2022/11/29 12:01:18;;;;;;;31.65;23.70;;;;;;;;;;5092820;28;20032;-68
2022/11/29 12:03:44;;;;;;;41.72;27.63;;;;;;;;;;5061265;28;20036;-68
2022/11/29 12:06:23;;;;;;;26.73;19.88;;;;;;;;;;5092932;28;20065;-68
2022/11/29 12:08:49;;;;;;;23.23;15.80;;;;;;;;;;5092898;28;20470;-68
2022/11/29 12:11:17;;;;;;;22.08;17.00;;;;;;;;;;5092803;28;20016;-68
2022/11/29 12:13:45;;;;;;;24.73;16.58;;;;;;;;;;5092794;28;20103;-68
2022/11/29 12:16:15;;;;;;;24.50;17.33;;;;;;;;;;5074796;28;20011;-68
2022/11/29 12:18:47;;;;;;;36.30;23.30;;;;;;;;;;5093302;28;20036;-68
2022/11/29 12:21:15;;;;;;;43.85;25.85;;;;;;;;;;5074765;28;20278;-68
2022/11/29 12:23:57;;;;;;;25.95;18.15;;;;;;;;;;5092681;28;20073;-68
2022/11/29 12:26:35;;;;;;;22.15;15.95;;;;;;;;;;5092073;28;20096;-68
2022/11/29 12:29:00;;;;;;;20.65;16.10;;;;;;;;;;5092376;28;20046;-67
2022/11/29 12:31:44;;;;;;;20.65;15.13;;;;;;;;;;5092385;28;20110;-68
2022/11/29 12:34:29;;;;;;;27.27;17.35;;;;;;;;;;5074438;28;20397;-68
2022/11/29 12:36:54;;;;;;;36.38;23.40;;;;;;;;;;5092621;28;20024;-68
2022/11/29 12:39:19;;;;;;;23.08;16.70;;;;;;;;;;5074555;28;20466;-68
2022/11/29 12:41:53;;;;;;;23.30;16.02;;;;;;;;;;5074447;28;20131;-67
2022/11/29 12:44:26;;;;;;;28.02;17.95;;;;;;;;;;5092488;28;20034;-67
2022/11/29 12:47:01;;;;;;;87.43;50.75;;;;;;;;;;5092459;28;20036;-68
2022/11/29 12:49:47;;;;;;;82.20;47.13;;;;;;;;;;5092462;28;20131;-67
2022/11/29 12:52:12;;;;;;;56.60;38.95;;;;;;;;;;5092393;28;20040;-67
2022/11/29 12:54:40;;;;;;;43.30;26.73;;;;;;;;;;5092441;28;20013;-67
2022/11/29 12:57:11;;;;;;;35.47;21.48;;;;;;;;;;5092080;28;20335;-67
2022/11/29 13:00:00;;;;;;;30.52;19.52;;;;;;;;;;5092420;28;20221;-67
2022/11/29 13:02:32;;;;;;;33.00;20.98;;;;;;;;;;5092279;28;20035;-67
2022/11/29 13:05:04;;;;;;;86.60;42.13;;;;;;;;;;5074081;28;20028;-67
2022/11/29 13:07:36;;;;;;;39.67;24.20;;;;;;;;;;5073723;28;20107;-67
2022/11/29 13:10:16;;;;;;;92.82;45.50;;;;;;;;;;5092076;28;20027;-67
2022/11/29 13:12:52;;;;;;;49.83;28.20;;;;;;;;;;5092195;28;20427;-70
2022/11/29 13:15:20;;;;;;;112.28;54.40;;;;;;;;;;5092327;28;20024;-70
2022/11/29 13:17:45;;;;;;;51.55;27.80;;;;;;;;;;5092126;28;20024;-70
2022/11/29 13:20:28;;;;;;;25.55;16.83;;;;;;;;;;5092109;28;20081;-70
2022/11/29 13:22:53;;;;;;;22.77;15.75;;;;;;;;;;5092077;28;20656;-70
2022/11/29 13:25:34;;;;;;;46.97;26.85;;;;;;;;;;5092157;28;20115;-70
2022/11/29 13:28:09;;;;;;;52.35;28.00;;;;;;;;;;5092076;28;20111;-70
2022/11/29 13:30:35;;;;;;;43.60;25.77;;;;;;;;;;5092027;28;20056;-70
2022/11/29 13:33:16;;;;;;;39.72;24.73;;;;;;;;;;5091967;28;20571;-70
2022/11/29 13:35:45;;;;;;;58.95;33.25;;;;;;;;;;5073938;28;20024;-70
2022/11/29 13:38:17;;;;;;;68.32;35.83;;;;;;;;;;5092396;28;20016;-70
2022/11/29 13:40:54;;;;;;;69.22;38.22;;;;;;;;;;5095593;28;20035;-70
2022/11/29 13:43:20;;;;;;;87.82;48.30;;;;;;;;;;5077100;28;20041;-70
2022/11/29 13:45:54;;;;;;;136.20;77.60;;;;;;;;;;5095043;28;20043;-70
2022/11/29 13:48:40;;;;;;;88.43;57.63;;;;;;;;;;5095514;28;20040;-70
2022/11/29 13:51:22;;;;;;;76.60;49.40;;;;;;;;;;5080492;28;20135;-71
2022/11/29 13:53:48;;;;;;;145.55;123.63;;;;;;;;;;5077229;28;20028;-71
2022/11/29 13:56:35;;;;;;;62.58;43.28;;;;;;;;;;5094834;28;20103;-73
2022/11/29 13:59:04;;;;;;;98.30;81.15;;;;;;;;;;5077435;28;20035;-71
2022/11/29 14:01:41;;;;;;;68.90;47.60;;;;;;;;;;5077100;28;20020;-71
2022/11/29 14:04:14;;;;;;;194.23;162.90;;;;;;;;;;5077536;28;20063;-71
2022/11/29 14:06:40;;;;;;;780.55;430.63;;;;;;;;;;5095075;28;20115;-69
2022/11/29 14:09:18;;;;;;;235.90;131.65;;;;;;;;;;5061297;28;20100;-71
2022/11/29 14:11:47;;;;;;;202.63;102.90;;;;;;;;;;5095736;28;20043;-71
2022/11/29 14:14:27;;;;;;;122.63;76.40;;;;;;;;;;5095833;28;20070;-71
2022/11/29 14:17:03;;;;;;;114.03;60.38;;;;;;;;;;5095920;28;20028;-71
2022/11/29 14:19:33;;;;;;;299.02;147.90;;;;;;;;;;5095855;28;20028;-71
2022/11/29 14:22:01;;;;;;;457.80;236.23;;;;;;;;;;5095893;28;20081;-71
2022/11/29 14:24:35;;;;;;;284.08;139.27;;;;;;;;;;5095766;28;20027;-71
2022/11/29 14:27:13;;;;;;;51.70;31.67;;;;;;;;;;5095850;28;20027;-71
2022/11/29 14:29:53;;;;;;;433.05;212.30;;;;;;;;;;5095816;28;20024;-71
2022/11/29 14:32:22;;;;;;;350.77;183.73;;;;;;;;;;5095623;28;20043;-71
2022/11/29 14:35:08;;;;;;;119.63;60.55;;;;;;;;;;5095735;28;20024;-71
2022/11/29 14:37:54;;;;;;;67.43;38.53;;;;;;;;;;5081489;28;20039;-71
2022/11/29 14:40:29;;;;;;;220.88;109.63;;;;;;;;;;5095651;28;20118;-71
2022/11/29 14:42:55;;;;;;;154.70;80.60;;;;;;;;;;5095407;28;20038;-71
2022/11/29 14:45:22;;;;;;;113.40;66.38;;;;;;;;;;5076781;28;20020;-71
2022/11/29 14:47:48;;;;;;;53.15;32.35;;;;;;;;;;5094601;28;20218;-71
2022/11/29 14:50:32;;;;;;;70.03;41.95;;;;;;;;;;5093548;28;20107;-71
2022/11/29 14:52:58;;;;;;;52.97;32.60;;;;;;;;;;5094511;28;20021;-69